Date,TemperatureHighF,TemperatureAvgF,TemperatureLowF,DewpointHighF,DewpointAvgF,DewpointLowF,HumidityHigh,HumidityAvg,HumidityLow,PressureMaxIn,PressureMinIn,WindSpeedMaxMPH,WindSpeedAvgMPH,GustSpeedMaxMPH,PrecipitationSumIn
2012-4-30,74.4,67.8,60.0,63.7,60.1,57.3,94,77,60,30.34,30.16,9,2,9,0.02
2012-5-1,85.3,71.2,63.7,69.5,64.6,62.3,96,81,55,30.19,30.08,19,3,19,0.04
2012-5-2,88.3,74.4,62.5,71.6,67.0,61.1,97,80,49,30.17,30.08,6,2,12,0.00
2012-5-3,86.6,72.4,60.8,71.5,66.4,59.7,97,83,52,30.21,30.09,6,1,9,0.00
2012-5-4,87.8,75.9,58.1,70.5,66.2,57.3,97,74,51,30.10,29.98,5,2,12,0.00
2012-5-7,76.7,67.2,52.5,60.0,56.5,51.1,96,71,54,30.16,30.05,7,3,11,0.00
2012-5-8,76.2,70.2,53.1,64.0,60.7,51.2,95,73,63,30.07,29.92,7,4,13,0.00
2012-5-9,75.0,68.9,61.4,66.6,64.1,59.2,94,85,71,29.88,29.72,16,3,16,0.42
2012-5-10,71.3,65.0,50.5,55.3,49.3,43.8,95,59,40,29.93,29.78,17,3,17,0.00
2012-5-14,72.9,65.6,61.4,65.9,62.4,59.6,96,90,72,30.22,30.04,11,2,14,0.24
2012-5-16,81.8,76.6,65.7,70.8,67.0,63.0,95,73,56,30.04,29.93,3,1,8,0.02
2012-5-17,78.1,71.6,60.3,66.7,63.7,59.6,98,78,60,30.09,30.00,12,6,17,0.00
2012-5-18,76.4,67.2,56.1,56.4,49.4,43.2,97,56,33,30.19,30.13,10,6,18,0.00
2012-5-20,79.9,77.4,71.7,62.2,55.8,48.4,72,48,35,30.18,30.10,16,8,25,0.00
2012-5-21,79.0,72.4,64.4,68.8,65.4,63.2,97,80,63,30.09,29.93,8,2,8,0.01
2012-5-22,85.8,78.3,67.3,68.2,64.8,61.4,89,65,48,29.94,29.83,10,2,10,0.00
2012-5-23,77.1,73.4,62.7,68.0,65.4,60.6,96,76,67,29.98,29.90,15,2,15,0.15
2012-5-24,77.5,71.0,64.4,71.0,66.6,62.3,95,86,76,30.12,30.07,11,3,11,0.38
2012-5-25,87.0,75.5,59.4,72.2,67.6,58.5,98,79,51,30.21,30.13,11,2,11,0.00
2012-5-29,87.8,80.4,71.2,71.8,69.8,67.5,92,71,53,30.04,29.88,14,4,14,0.00
2012-5-30,80.5,73.7,68.3,69.1,67.0,61.1,97,81,53,29.86,29.77,14,4,14,0.05
2012-5-31,88.0,79.1,58.4,68.9,62.8,57.2,97,60,39,29.93,29.87,13,2,13,0.00
2012-6-1,84.3,75.5,62.9,73.2,69.2,61.7,97,82,63,29.92,29.73,19,4,19,0.53
2012-6-2,67.1,65.3,63.2,57.3,55.6,53.8,79,71,66,29.92,29.91,9,3,9,0.01
2012-6-4,83.3,73.9,56.2,64.1,54.7,48.0,97,55,32,29.81,29.69,19,3,19,0.00
2012-6-5,71.8,63.0,55.1,61.2,56.0,51.6,96,79,54,30.02,29.80,17,3,17,0.13
2012-6-6,71.5,61.8,53.7,60.6,54.8,50.8,96,80,49,30.09,30.00,10,2,10,0.00
2012-6-7,78.4,61.8,48.1,60.8,54.0,47.0,97,79,45,30.13,30.04,8,1,8,0.00
2012-6-8,84.1,72.6,51.3,61.0,55.3,48.6,97,59,30,30.12,30.05,11,2,11,0.00
2012-6-11,78.5,73.2,65.9,71.8,68.2,61.6,87,84,78,30.22,30.13,13,3,13,0.00
2012-6-12,82.8,74.9,71.1,72.9,70.2,68.5,93,86,70,30.05,29.93,13,4,13,0.01
2012-6-18,82.8,73.8,61.6,68.2,63.9,58.0,88,72,59,30.17,30.09,9,3,9,0.00
2012-6-20,94.6,75.9,65.2,74.5,70.0,64.2,98,84,45,30.21,30.12,4,0,4,0.00
2012-6-21,94.5,85.2,74.5,77.0,71.8,65.2,87,66,40,29.98,29.92,12,2,12,0.00
2012-6-22,95.5,80.4,72.4,75.0,71.3,67.9,93,76,43,29.95,29.82,17,1,17,0.00
2012-6-25,94.2,84.4,70.3,73.5,68.6,62.4,94,62,36,29.90,29.71,15,3,15,0.24
2012-6-26,81.0,72.0,54.5,53.1,49.3,45.3,89,47,30,29.99,29.89,16,4,16,0.00
2012-6-27,87.3,76.4,49.8,57.6,51.3,43.6,96,47,24,30.04,29.97,21,3,21,0.00
2012-6-28,95.5,83.3,55.7,64.4,57.5,51.1,94,47,23,30.05,29.89,14,2,14,0.00
2012-6-29,104.6,92.9,68.8,73.1,68.1,62.3,83,47,30,29.87,29.77,12,2,12,0.00
2012-6-30,102.3,95.1,86.0,72.2,68.2,63.6,61,43,31,29.93,29.83,13,2,13,0.00
2012-7-1,101.3,84.4,68.9,78.4,70.1,60.1,95,65,31,30.01,29.84,19,2,19,0.06
2012-7-2,94.1,81.6,70.7,72.7,67.9,63.6,96,65,39,30.05,29.96,18,2,18,0.77
2012-7-3,95.4,73.0,67.2,73.5,68.1,63.6,98,86,38,30.06,29.94,17,1,17,0.01
2012-7-4,95.3,79.9,67.1,78.2,69.6,65.6,96,73,43,30.04,29.92,16,1,16,0.00
2012-7-5,98.8,81.4,68.4,82.1,71.5,64.7,96,75,37,29.98,29.88,23,1,23,0.35
2012-7-9,92.8,78.5,71.7,75.8,72.0,69.7,96,83,53,30.01,29.88,17,2,17,1.25
2012-7-10,86.7,76.6,68.6,76.5,71.8,66.5,98,86,55,30.09,29.99,20,2,20,1.13
2012-7-11,81.0,74.3,69.4,73.5,70.6,68.0,97,89,74,30.18,30.11,16,2,16,0.04
2012-7-12,84.3,75.8,65.9,69.5,66.9,60.9,97,76,48,30.25,30.19,11,3,11,0.01
2012-7-13,85.0,78.6,68.3,72.7,70.2,66.8,96,76,64,30.28,30.22,9,2,9,0.00
2012-7-16,93.3,87.2,76.0,77.4,73.7,69.2,92,65,48,30.09,29.95,9,2,9,0.01
2012-7-17,96.2,89.5,72.7,76.4,70.6,64.8,92,56,38,30.01,29.90,8,2,8,0.00
2012-7-18,95.1,84.7,73.1,78.0,74.3,65.6,95,72,52,30.02,29.91,35,3,35,3.83
2012-7-19,94.7,86.0,71.9,76.9,74.0,70.7,97,69,47,30.04,29.95,23,2,23,0.00
2012-7-25,87.3,80.1,70.6,73.1,68.6,64.7,93,70,50,30.02,29.93,11,2,22,0.00
2012-7-26,96.3,84.5,73.0,80.2,74.3,70.3,92,73,51,29.95,29.79,14,2,14,0.00
2012-7-27,95.2,80.6,72.0,81.5,74.0,69.0,97,82,51,29.99,29.84,18,1,18,0.37
2012-7-28,92.8,78.1,70.3,76.6,71.2,66.0,98,82,48,30.04,29.93,14,1,26,0.13
2012-7-29,89.0,77.4,66.8,74.1,68.9,65.5,97,77,51,30.07,29.98,9,1,9,0.00
2012-7-30,89.5,77.9,68.5,73.6,69.9,63.1,97,79,52,30.10,29.99,17,2,17,0.00
2012-7-31,87.8,77.5,63.1,74.8,69.9,62.1,98,80,55,30.06,29.93,8,1,8,0.00
2012-8-1,89.4,76.6,66.1,75.2,69.7,65.2,98,81,52,30.00,29.86,16,1,16,0.06
2012-8-2,93.3,79.0,68.3,76.6,71.2,67.4,97,79,48,29.97,29.90,21,2,21,0.00
2012-8-5,87.8,86.0,83.6,75.4,74.0,72.2,69,68,65,30.26,30.24,14,4,14,0.00
2012-8-6,75.0,74.7,74.4,72.5,72.3,72.0,93,92,92,30.16,30.15,8,1,8,0.00
2012-8-7,84.8,80.1,75.3,77.0,74.7,72.2,94,84,74,30.09,30.00,9,2,9,0.15
2012-8-8,87.1,74.8,67.9,76.7,71.8,66.2,98,91,67,30.06,29.97,18,1,18,0.17
2012-8-9,88.0,76.5,63.4,76.3,71.2,62.6,98,85,65,30.06,29.91,10,1,10,0.00
2012-8-10,82.5,76.4,71.3,74.7,72.0,70.0,97,86,73,29.92,29.85,20,3,20,0.04
2012-8-11,77.8,73.7,69.8,74.6,71.4,68.2,97,92,80,30.01,29.88,14,2,14,0.58
2012-8-12,85.0,75.4,67.5,75.1,71.0,66.5,98,87,62,30.06,29.97,8,1,8,0.00
2012-8-13,87.8,72.4,59.8,70.7,64.8,58.9,98,81,40,30.11,30.00,7,1,7,0.01
2012-8-14,87.8,76.7,66.6,73.0,69.5,64.9,98,81,49,30.01,29.89,11,1,11,0.05
2012-8-15,81.2,73.8,69.4,73.1,70.8,68.3,97,91,72,29.97,29.91,8,0,8,0.00
2012-8-17,88.0,81.8,71.4,73.8,70.0,66.2,94,69,51,30.00,29.86,12,2,12,0.00
2012-8-18,83.8,73.9,65.4,70.4,66.7,63.6,96,80,52,29.99,29.89,9,2,9,0.00
2012-8-19,72.0,67.9,63.2,68.1,65.6,61.9,97,92,84,30.00,29.91,13,2,13,0.55
2012-8-20,77.5,69.7,65.6,71.4,66.6,64.4,97,90,72,29.99,29.91,5,1,5,0.04
2012-8-21,83.0,76.1,63.4,72.1,67.8,62.8,98,77,57,30.11,30.04,7,1,7,0.00
2012-8-22,82.5,78.9,73.2,72.2,68.9,66.4,93,73,60,30.15,30.12,9,2,9,0.00
2012-8-23,69.0,66.9,66.5,67.8,66.0,65.2,97,97,96,30.21,30.19,3,0,3,0.00
2012-8-24,78.0,72.4,62.4,69.0,65.6,61.1,98,80,61,30.23,30.18,10,2,10,0.00
2012-8-27,86.8,69.4,64.1,73.4,66.2,63.4,98,91,60,30.21,30.09,7,0,7,0.00
2012-8-28,90.8,82.5,71.9,77.7,73.6,70.3,98,76,54,30.06,29.92,15,2,15,0.08
2012-8-29,86.5,78.7,69.0,72.0,68.4,62.7,98,72,48,30.06,29.98,11,2,11,0.01
2012-10-4,78.2,74.3,68.9,68.9,67.0,64.5,87,78,69,30.26,30.18,8,2,10,0.00
2012-10-5,79.3,74.2,52.9,61.8,57.3,52.4,98,58,45,30.23,30.10,8,2,8,0.01
2012-10-7,54.6,51.2,47.4,51.2,49.1,46.6,97,93,86,30.23,30.07,13,3,13,0.82
2012-10-8,48.6,40.5,45.4,47.1,25.3,-99.9,98,81,85,30.34,30.22,12,-136,12,0.52
2012-10-9,58.6,52.6,45.7,55.3,50.0,44.9,97,91,83,30.25,30.15,8,2,8,0.04
2012-10-10,65.3,64.4,64.1,54.3,53.3,51.9,69,67,66,30.10,30.08,9,3,9,0.00
2012-10-11,63.4,59.3,51.0,50.7,45.2,40.4,93,61,48,30.37,30.28,8,1,8,0.00
2012-10-29,47.1,43.1,40.5,46.0,41.5,38.9,96,94,92,29.56,29.24,27,5,27,0.87
2012-10-30,48.4,43.2,38.4,40.1,36.6,33.6,94,78,61,29.61,29.22,27,4,27,0.11
2012-10-31,53.2,46.7,40.7,39.3,36.7,34.8,80,69,54,29.80,29.61,16,3,16,0.00
2012-11-1,55.9,47.5,34.5,40.0,37.5,32.4,93,69,52,29.90,29.78,19,2,19,0.00
2012-11-2,57.7,39.9,29.4,41.1,33.6,28.1,95,81,40,30.04,29.88,16,1,16,0.00
2012-11-3,56.4,41.8,29.3,39.7,33.5,28.0,95,75,44,30.20,30.03,13,1,13,0.01
2012-11-4,52.7,43.2,33.8,42.9,38.7,32.6,96,85,63,30.18,30.06,8,1,8,0.02
2012-11-5,40.9,35.2,28.3,38.9,32.6,26.8,97,90,78,30.22,30.10,8,1,8,0.00
2012-11-6,44.1,37.0,27.5,33.4,30.5,26.0,95,78,60,30.26,30.01,15,3,15,0.00
2012-11-7,48.2,39.1,30.3,37.2,33.6,29.2,96,82,60,30.02,29.92,15,2,15,0.02
2012-11-8,59.9,43.4,31.3,37.2,29.3,17.8,96,65,21,30.18,30.01,12,1,12,0.01
2012-11-9,62.2,42.6,26.4,41.0,32.7,24.5,94,72,36,30.33,30.17,9,0,9,0.00
2012-11-10,72.8,47.8,29.4,45.7,37.1,28.1,96,73,28,30.45,30.32,10,1,10,0.00
2012-11-11,73.3,51.6,31.9,51.1,42.4,30.5,96,76,36,30.55,30.44,13,1,13,0.00
2012-11-12,72.1,58.4,41.2,61.3,53.4,40.1,97,85,64,30.50,30.23,13,2,13,0.00
2012-11-13,64.6,47.4,32.1,61.3,45.6,31.1,97,93,88,30.52,30.20,14,2,14,0.20
2012-11-14,49.0,38.6,30.6,35.5,31.3,27.4,90,76,56,30.59,30.48,17,4,17,0.00
2012-11-15,48.6,42.5,33.4,42.7,37.2,29.9,94,82,71,30.49,30.31,11,2,11,0.06
2012-11-16,50.5,40.3,34.8,40.9,37.5,33.2,95,90,61,30.42,30.34,7,1,7,0.01
2012-11-19,57.1,50.4,42.3,46.8,43.7,39.1,90,78,67,30.43,30.26,17,5,17,0.00
2012-11-20,59.4,45.8,34.7,47.7,41.3,33.6,96,85,61,30.26,30.13,8,1,8,0.00
2012-11-21,58.1,42.2,30.1,43.4,36.3,28.6,97,82,47,30.27,30.18,14,2,14,0.00
2012-11-22,59.7,41.1,28.1,36.1,30.8,26.3,95,72,28,30.34,30.23,12,2,12,0.00
2012-11-23,66.7,46.1,24.7,41.8,33.6,23.0,94,67,36,30.25,29.92,14,2,14,0.01
2012-11-24,51.4,40.9,25.6,32.3,24.2,18.8,79,52,38,30.20,29.94,16,2,16,0.00
2012-11-25,50.4,35.8,18.9,25.8,21.7,16.2,91,60,31,30.24,30.08,14,2,14,0.00
2012-11-26,63.4,44.2,27.4,36.5,29.1,24.3,89,60,27,30.26,30.13,10,1,10,0.00
2012-11-27,49.9,41.2,32.6,43.6,37.8,30.0,95,88,67,30.32,30.19,13,2,13,0.19
2012-11-28,50.7,36.2,25.9,37.6,31.3,24.4,97,84,48,30.46,30.32,10,1,10,0.00
2012-11-29,52.1,33.9,21.5,33.2,26.3,19.4,94,77,40,30.56,30.45,12,1,12,0.01
2012-11-30,61.7,40.0,24.9,41.8,32.5,23.2,95,78,42,30.48,30.36,10,1,10,0.01
2012-12-1,61.9,40.9,27.9,44.1,34.9,26.7,95,82,46,30.49,30.39,6,0,6,0.00
2012-12-2,66.8,47.9,29.7,53.1,42.2,28.3,96,82,57,30.46,30.29,15,2,15,0.00
2012-12-3,71.9,59.9,50.5,57.2,54.0,48.8,96,82,56,30.35,30.26,9,1,9,0.00
2012-12-4,74.4,63.7,39.7,56.9,52.8,38.7,97,69,45,30.36,30.20,14,3,14,0.00
2012-12-5,61.3,53.8,34.4,57.4,49.9,32.8,97,87,72,30.30,30.14,10,1,10,0.06
2012-12-6,48.4,39.5,28.0,38.1,32.3,26.6,96,77,53,30.44,30.30,10,1,10,0.00
2012-12-7,49.2,45.6,41.1,47.9,42.4,35.4,97,89,79,30.31,30.07,6,0,6,0.20
2012-12-8,60.6,50.4,42.4,55.4,49.2,41.6,98,95,83,30.11,30.02,9,1,9,0.00
2012-12-9,63.9,53.1,40.0,59.0,51.5,39.2,98,94,84,30.20,30.05,6,0,6,0.01
2012-12-10,70.1,64.4,50.9,63.2,60.0,50.2,98,86,71,30.05,29.70,14,4,23,0.00
2012-12-11,63.6,53.8,47.2,58.5,46.3,38.7,93,76,62,30.25,29.74,13,2,13,0.02
2012-12-12,47.4,43.6,41.3,39.9,32.6,30.1,78,65,57,30.45,30.23,15,5,15,0.00
2012-12-13,51.8,39.6,26.6,36.6,31.1,24.8,94,73,47,30.49,30.39,14,3,14,0.00
2012-12-14,55.6,34.5,23.9,35.4,28.5,22.2,94,82,39,30.44,30.31,4,0,4,0.01
2012-12-15,54.4,39.6,27.4,38.8,32.4,25.5,95,78,44,30.35,30.17,9,1,9,0.00
2012-12-16,55.4,50.0,44.3,54.4,47.9,37.5,97,92,72,30.18,29.94,10,1,10,0.26
2012-12-17,58.4,56.0,52.3,55.8,54.5,51.6,98,95,89,29.96,29.68,13,2,13,0.14
2012-12-18,60.2,52.3,33.9,55.5,45.2,31.3,97,78,52,29.95,29.67,18,2,18,0.01
2012-12-19,62.4,43.9,28.4,42.1,35.5,27.1,96,76,42,30.24,29.92,12,1,12,0.00
2012-12-20,60.7,44.2,29.9,58.9,40.1,28.6,96,86,65,30.26,29.47,20,3,20,0.36
2012-12-21,60.5,43.1,36.1,59.4,29.9,21.5,96,60,46,29.82,29.48,23,5,23,0.01
2012-12-22,47.7,39.8,33.8,24.9,22.0,17.4,62,49,35,30.16,29.82,22,3,22,0.00
2012-12-23,56.2,42.3,26.2,27.7,22.6,17.9,81,48,25,30.20,30.05,13,2,13,0.00
2012-12-24,48.2,43.0,36.6,45.3,38.4,26.7,95,85,49,30.12,29.95,14,1,14,0.03
2012-12-25,51.2,46.6,43.8,45.5,43.3,39.9,95,89,79,30.23,29.98,11,2,11,0.00
2012-12-26,46.1,40.8,36.5,44.8,38.6,35.5,96,92,76,30.21,29.51,20,4,20,2.06
2012-12-27,47.2,39.6,28.5,37.3,31.3,23.9,95,73,54,30.16,29.63,17,3,17,0.00
2012-12-28,43.7,33.8,23.5,31.2,27.7,21.8,94,79,58,30.27,30.09,10,1,10,0.00
2012-12-29,48.4,40.4,35.0,41.6,34.7,28.2,96,81,62,30.09,29.70,20,2,20,0.17
2012-12-30,45.2,37.0,27.7,28.6,22.9,19.8,82,58,39,30.45,29.98,16,2,16,0.00
2012-12-31,51.5,38.6,25.7,32.6,25.4,19.4,86,61,36,30.44,30.16,14,1,14,0.00
2013-1-1,46.7,44.0,40.0,43.5,38.7,30.7,97,82,58,30.17,29.97,11,1,11,0.17